createdAt,value
2019-02-20T00:04:30.067Z,6.80
2019-02-20T00:09:20.965Z,6.90
2019-02-20T00:14:11.879Z,6.70
2019-02-20T00:19:02.813Z,6.50
2019-02-20T00:23:54.308Z,6.30
2019-02-20T00:28:45.287Z,6.20
2019-02-20T00:33:36.209Z,6.50
2019-02-20T00:38:27.122Z,7.00
2019-02-20T00:43:18.024Z,6.90
2019-02-20T00:48:15.275Z,6.70
2019-02-20T00:53:11.157Z,6.50
2019-02-20T00:58:02.050Z,6.30
2019-02-20T01:02:53.035Z,6.20
2019-02-20T01:07:43.960Z,6.40
2019-02-20T01:12:34.897Z,6.90
2019-02-20T01:17:25.806Z,6.80
2019-02-20T01:22:16.714Z,6.60
2019-02-20T01:27:07.627Z,6.40
2019-02-20T01:31:58.546Z,6.30
2019-02-20T01:36:49.464Z,6.10
2019-02-20T01:41:40.376Z,6.40
2019-02-20T01:46:31.309Z,6.80
2019-02-20T01:51:22.214Z,6.70
2019-02-20T01:56:13.115Z,6.60
2019-02-20T02:01:04.822Z,6.30
2019-02-20T02:05:55.709Z,6.30
2019-02-20T02:10:46.629Z,6.20
2019-02-20T02:15:37.544Z,6.50
2019-02-20T02:20:28.454Z,6.90
2019-02-20T02:25:19.356Z,6.80
2019-02-20T02:30:10.990Z,6.40
2019-02-20T02:35:02.624Z,6.30
2019-02-20T02:39:54.264Z,6.20
2019-02-20T02:44:45.922Z,6.50
2019-02-20T02:49:36.834Z,6.50
2019-02-20T02:54:27.748Z,6.90
2019-02-20T02:59:18.649Z,6.80
2019-02-20T03:04:10.289Z,6.30
2019-02-20T03:09:01.963Z,6.10
2019-02-20T03:13:52.892Z,6.10
2019-02-20T03:18:43.803Z,6.00
2019-02-20T03:23:40.128Z,6.20
2019-02-20T03:28:25.609Z,6.60
2019-02-20T03:33:16.520Z,6.50
2019-02-20T03:38:08.174Z,6.00
2019-02-20T03:42:59.817Z,5.80
2019-02-20T03:47:50.725Z,5.80
2019-02-20T03:52:41.631Z,5.70
2019-02-20T03:57:32.551Z,5.90
2019-02-20T04:02:23.461Z,6.30
2019-02-20T04:07:15.133Z,6.10
2019-02-20T04:12:06.045Z,6.10
2019-02-20T04:16:56.981Z,5.90
2019-02-20T04:21:47.893Z,5.80
2019-02-20T04:26:38.851Z,5.70
2019-02-20T04:31:29.732Z,5.80
2019-02-20T04:36:20.645Z,6.40
2019-02-20T04:41:11.545Z,6.50
2019-02-20T04:46:02.454Z,6.40
2019-02-20T04:50:53.345Z,6.20
2019-02-20T04:55:44.246Z,6.10
2019-02-20T05:00:35.906Z,6.00
2019-02-20T05:05:27.545Z,6.40
2019-02-20T05:10:19.197Z,6.70
2019-02-20T05:15:10.132Z,6.70
2019-02-20T05:20:01.034Z,6.60
2019-02-20T05:24:51.961Z,6.40
2019-02-20T05:29:42.885Z,6.30
2019-02-20T05:34:33.782Z,6.20
2019-02-20T05:39:25.421Z,6.40
2019-02-20T05:44:17.079Z,6.90
2019-02-20T05:49:08.039Z,6.90
2019-02-20T05:53:58.921Z,6.80
2019-02-20T05:58:49.845Z,6.60
2019-02-20T06:03:40.794Z,6.40
2019-02-20T06:08:31.705Z,6.30
2019-02-20T06:13:22.598Z,6.20
2019-02-20T06:18:13.536Z,6.20
2019-02-20T06:23:04.496Z,6.70
2019-02-20T06:27:56.161Z,6.70
2019-02-20T06:32:47.061Z,6.70
2019-02-20T06:37:38.693Z,6.30
2019-02-20T06:42:30.325Z,6.20
2019-02-20T06:47:21.985Z,6.10
2019-02-20T06:52:13.002Z,6.10
2019-02-20T06:57:03.905Z,6.50
2019-02-20T07:01:55.540Z,6.80
2019-02-20T07:06:47.973Z,6.70
2019-02-20T07:11:38.868Z,6.60
2019-02-20T07:22:16.793Z,6.30
2019-02-20T07:27:18.937Z,6.20
2019-02-20T07:32:10.569Z,6.90
2019-02-20T07:37:02.235Z,6.80
2019-02-20T07:41:53.138Z,6.80
2019-02-20T07:46:44.786Z,6.40
2019-02-20T07:51:35.756Z,6.40
2019-02-20T07:56:26.664Z,6.30
2019-02-20T08:01:17.689Z,6.20
2019-02-20T08:06:08.595Z,6.20
2019-02-20T08:10:59.502Z,6.70
2019-02-20T08:15:50.400Z,6.90
2019-02-20T08:20:41.305Z,6.70
2019-02-20T08:25:32.950Z,6.50
2019-02-20T08:30:23.901Z,6.50
2019-02-20T08:35:14.821Z,6.50
2019-02-20T08:40:05.721Z,6.50
2019-02-20T08:45:04.297Z,6.80
2019-02-20T08:49:56.021Z,7.40
2019-02-20T08:54:48.549Z,7.30
2019-02-20T08:59:39.457Z,7.30
2019-02-20T09:04:30.358Z,7.20
2019-02-20T09:09:21.253Z,7.10
2019-02-20T09:14:12.151Z,7.10
2019-02-20T09:19:03.797Z,7.90
2019-02-20T09:23:55.437Z,8.00
2019-02-20T09:28:47.088Z,7.90
2019-02-20T09:33:38.017Z,7.90
2019-02-20T09:38:28.917Z,7.80
2019-02-20T09:43:19.824Z,7.80
2019-02-20T09:48:11.484Z,7.80
2019-02-20T09:53:02.447Z,7.80
2019-02-20T09:57:53.321Z,8.30
2019-02-20T10:02:44.217Z,8.60
2019-02-20T10:07:35.848Z,8.50
2019-02-20T10:12:27.489Z,8.50
2019-02-20T10:17:19.139Z,8.50
2019-02-20T10:22:10.053Z,8.50
2019-02-20T10:27:01.177Z,8.50
2019-02-20T10:31:51.864Z,9.00
2019-02-20T10:36:43.518Z,9.40
2019-02-20T10:41:34.440Z,9.40
2019-02-20T10:46:25.358Z,9.40
2019-02-20T10:51:16.295Z,9.40
2019-02-20T10:56:09.441Z,9.50
2019-02-20T11:00:58.120Z,9.60
2019-02-20T11:05:49.031Z,10.00
2019-02-20T11:10:40.675Z,10.60
2019-02-20T11:15:31.584Z,10.60
2019-02-20T11:20:23.233Z,10.80
2019-02-20T11:25:14.134Z,10.70
2019-02-20T11:30:07.300Z,11.30
2019-02-20T11:34:57.729Z,11.30
2019-02-20T11:39:48.633Z,11.90
2019-02-20T11:44:40.272Z,12.40
2019-02-20T11:49:31.918Z,12.30
2019-02-20T11:54:22.827Z,12.20
2019-02-20T11:59:13.860Z,12.30
2019-02-20T12:04:04.793Z,12.50
2019-02-20T12:08:55.754Z,12.80
2019-02-20T12:13:46.634Z,13.50
2019-02-20T12:18:37.532Z,13.90
2019-02-20T12:23:36.400Z,13.90
2019-02-20T12:28:19.440Z,13.90
2019-02-20T12:33:10.377Z,13.80
2019-02-20T12:38:02.588Z,14.00
2019-02-20T12:42:52.953Z,14.00
2019-02-20T12:47:44.610Z,14.10
2019-02-20T12:52:35.525Z,14.10
2019-02-20T12:57:26.429Z,13.90
2019-02-20T13:02:17.399Z,13.80
2019-02-20T13:07:09.049Z,13.60
2019-02-20T13:12:00.790Z,13.80
2019-02-20T13:16:51.816Z,13.80
2019-02-20T13:21:43.453Z,13.70
2019-02-20T13:26:35.107Z,13.40
2019-02-20T13:31:26.037Z,13.40
2019-02-20T13:36:16.955Z,13.20
2019-02-20T13:41:07.945Z,13.10
2019-02-20T13:45:58.853Z,13.30
2019-02-20T13:50:50.508Z,13.10
2019-02-20T13:55:41.417Z,13.10
2019-02-20T14:00:32.327Z,12.80
2019-02-20T14:05:23.237Z,12.50
2019-02-20T14:10:14.885Z,12.60
2019-02-20T14:15:06.544Z,12.90
2019-02-20T14:19:57.453Z,12.80
2019-02-20T14:24:49.215Z,12.70
2019-02-20T14:29:39.298Z,12.40
2019-02-20T14:34:30.235Z,12.20
2019-02-20T14:39:21.248Z,12.00
2019-02-20T14:44:12.175Z,12.20
2019-02-20T14:49:03.096Z,12.50
2019-02-20T14:53:54.340Z,12.40
2019-02-20T14:58:44.959Z,12.10
2019-02-20T15:03:36.601Z,11.60
2019-02-20T15:08:28.270Z,11.60
2019-02-20T15:13:19.173Z,11.60
2019-02-20T15:18:10.840Z,12.00
2019-02-20T15:23:01.760Z,12.00
2019-02-20T15:27:52.674Z,11.80
2019-02-20T15:32:43.617Z,11.50
2019-02-20T15:37:34.557Z,11.30
2019-02-20T15:42:25.482Z,11.10
2019-02-20T15:47:17.136Z,11.60
2019-02-20T15:52:08.049Z,11.60
2019-02-20T15:56:58.972Z,11.40
2019-02-20T16:01:50.635Z,11.00
2019-02-20T16:06:41.589Z,11.00
2019-02-20T16:11:32.517Z,10.80
2019-02-20T16:16:23.444Z,10.90
2019-02-20T16:21:14.349Z,11.30
2019-02-20T16:26:05.887Z,11.30
2019-02-20T16:30:56.806Z,11.00
2019-02-20T16:35:48.476Z,10.70
2019-02-20T16:40:39.273Z,10.50
2019-02-20T16:45:30.203Z,10.40
2019-02-20T16:50:21.869Z,10.90
2019-02-20T16:55:19.258Z,10.80
2019-02-20T17:00:04.513Z,10.40
2019-02-20T17:04:59.238Z,10.20
2019-02-20T17:09:47.117Z,10.10
2019-02-20T17:14:38.149Z,10.00
2019-02-20T17:19:29.053Z,10.10
2019-02-20T17:24:19.977Z,10.50
2019-02-20T17:29:10.905Z,10.40
2019-02-20T17:34:01.863Z,10.10
2019-02-20T17:38:53.509Z,9.70
2019-02-20T17:43:44.441Z,9.60
2019-02-20T17:48:35.353Z,9.50
2019-02-20T17:53:26.261Z,9.80
2019-02-20T17:58:17.923Z,9.90
2019-02-20T18:03:08.833Z,9.90
2019-02-20T18:07:59.765Z,9.70
2019-02-20T18:12:50.670Z,9.40
2019-02-20T18:17:41.582Z,9.30
2019-02-20T18:22:32.485Z,9.10
2019-02-20T18:27:24.130Z,9.70
2019-02-20T18:32:15.787Z,9.50
2019-02-20T18:37:06.724Z,9.50
2019-02-20T18:41:57.639Z,9.30
2019-02-20T18:46:48.706Z,9.10
2019-02-20T18:51:40.542Z,8.90
2019-02-20T18:56:34.028Z,9.30
2019-02-20T19:01:23.624Z,9.30
2019-02-20T19:06:14.773Z,9.40
2019-02-20T19:11:05.675Z,9.20
2019-02-20T19:16:07.679Z,8.70
2019-02-20T19:21:04.532Z,8.70
2019-02-20T19:25:56.471Z,8.50
2019-02-20T19:30:57.324Z,8.40
2019-02-20T19:35:53.147Z,8.80
2019-02-20T19:40:50.118Z,9.00
2019-02-20T19:45:45.964Z,8.80
2019-02-20T19:50:39.850Z,8.50
2019-02-20T19:55:40.691Z,8.30
2019-02-20T20:00:38.458Z,8.20
2019-02-20T20:05:32.490Z,8.10
2019-02-20T20:10:27.142Z,8.60
2019-02-20T20:20:49.038Z,8.40
2019-02-20T20:25:57.701Z,8.20
2019-02-20T20:31:01.684Z,8.00
2019-02-20T20:35:57.656Z,7.80
2019-02-20T20:41:03.630Z,7.90
2019-02-20T20:46:00.418Z,8.40
2019-02-20T20:56:18.869Z,8.10
2019-02-20T21:01:12.722Z,7.90
2019-02-20T21:06:05.501Z,7.70
2019-02-20T21:10:59.354Z,7.60
2019-02-20T21:16:06.925Z,8.10
2019-02-20T21:21:08.795Z,8.10
2019-02-20T21:26:02.630Z,8.10
2019-02-20T21:31:06.593Z,7.70
2019-02-20T21:35:58.431Z,7.60
2019-02-20T21:46:22.569Z,7.20
2019-02-20T21:51:19.410Z,7.30
2019-02-20T21:56:13.217Z,7.80
2019-02-20T22:01:25.276Z,7.80
2019-02-20T22:06:19.778Z,7.20
2019-02-20T22:11:12.273Z,7.00
2019-02-20T22:16:11.478Z,7.00
2019-02-20T22:26:30.419Z,6.70
2019-02-20T22:31:25.138Z,7.30
2019-02-20T22:36:25.049Z,7.30
2019-02-20T22:41:16.833Z,7.00
2019-02-20T22:46:09.412Z,6.50
2019-02-20T22:51:05.168Z,6.50
2019-02-20T22:55:58.905Z,6.30
2019-02-20T23:00:58.347Z,6.50
2019-02-20T23:11:20.493Z,6.80
2019-02-20T23:16:12.127Z,6.50
2019-02-20T23:21:03.021Z,6.40
2019-02-20T23:25:53.917Z,6.30
2019-02-20T23:30:45.213Z,6.20
2019-02-20T23:35:35.725Z,6.10
2019-02-20T23:40:27.748Z,6.30
2019-02-20T23:45:17.566Z,6.80
2019-02-20T23:50:08.474Z,6.80
2019-02-20T23:55:00.291Z,6.40
2019-02-20T23:59:51.041Z,6.40
